Terminal Aerodrome Forecast
Issued by NWS

Home | Current Version | Previous Version | Text Only | Print | Product List | Glossary On
Versions: 1 2 3 4 5 6 7 8 9 10 11 12 13
000
FTUS44 KOUN 040530
TAFGAG
TAF
KGAG 040530Z 0406/0506 VRB03KT 3SM -RADZ BR OVC006
     FM041200 34006KT P6SM BKN012 OVC030
     FM041500 34009KT P6SM SCT030
     FM050000 VRB03KT P6SM SKC=

USA.gov is the U.S. government's official web portal to all federal, state and local government web resources and services.